createdAt,value
2022-10-05T00:00:14.902Z,5.04
2022-10-05T00:02:41.974Z,5.01
2022-10-05T00:05:20.980Z,4.91
2022-10-05T00:07:47.860Z,4.90
2022-10-05T00:10:19.602Z,4.92
2022-10-05T00:12:48.685Z,5.03
2022-10-05T00:15:18.763Z,4.99
2022-10-05T00:17:45.558Z,5.15
2022-10-05T00:20:23.888Z,5.14
2022-10-05T00:22:55.567Z,5.10
2022-10-05T00:25:22.768Z,5.07
2022-10-05T00:27:55.389Z,4.94
2022-10-05T00:30:23.927Z,4.89
2022-10-05T00:32:53.835Z,4.82
2022-10-05T00:35:23.022Z,4.86
2022-10-05T00:37:54.707Z,4.92
2022-10-05T00:40:35.162Z,4.91
2022-10-05T00:43:13.294Z,4.97
2022-10-05T00:45:47.733Z,4.84
2022-10-05T00:48:25.482Z,4.90
2022-10-05T00:51:07.365Z,4.84
2022-10-05T00:53:42.435Z,4.78
2022-10-05T00:56:19.816Z,4.68
2022-10-05T00:59:00.429Z,4.75
2022-10-05T01:01:37.095Z,4.94
2022-10-05T01:04:15.186Z,5.08
2022-10-05T01:06:54.758Z,5.05
2022-10-05T01:09:32.711Z,5.02
2022-10-05T01:12:07.530Z,4.78
2022-10-05T01:14:46.504Z,4.84
2022-10-05T01:17:18.371Z,4.90
2022-10-05T01:20:07.652Z,4.93
2022-10-05T01:22:49.741Z,5.01
2022-10-05T01:25:23.383Z,4.97
2022-10-05T01:28:03.174Z,4.97
2022-10-05T01:30:37.593Z,4.87
2022-10-05T01:33:16.731Z,4.84
2022-10-05T01:35:54.847Z,4.78
2022-10-05T01:38:32.130Z,4.66
2022-10-05T01:41:06.196Z,4.77
2022-10-05T01:43:39.942Z,4.82
2022-10-05T01:46:22.418Z,4.74
2022-10-05T01:49:07.004Z,4.90
2022-10-05T01:51:43.458Z,4.95
2022-10-05T01:54:19.622Z,4.81
2022-10-05T01:56:57.351Z,4.83
2022-10-05T01:59:39.871Z,4.76
2022-10-05T02:02:11.237Z,4.89
2022-10-05T02:05:01.424Z,4.72
2022-10-05T02:07:36.714Z,4.66
2022-10-05T02:10:14.535Z,4.63
2022-10-05T02:12:44.326Z,4.58
2022-10-05T02:15:17.018Z,4.55
2022-10-05T02:17:48.329Z,4.41
2022-10-05T02:20:22.385Z,4.50
2022-10-05T02:22:54.281Z,4.52
2022-10-05T02:25:26.770Z,4.47
2022-10-05T02:27:58.167Z,4.55
2022-10-05T02:30:28.269Z,4.48
2022-10-05T02:33:00.211Z,4.44
2022-10-05T02:35:27.565Z,4.43
2022-10-05T02:38:07.022Z,4.51
2022-10-05T02:40:45.215Z,4.53
2022-10-05T02:43:22.498Z,4.45
2022-10-05T02:45:58.043Z,4.46
2022-10-05T02:48:34.313Z,4.43
2022-10-05T02:51:10.078Z,4.31
2022-10-05T02:53:45.322Z,4.28
2022-10-05T02:56:24.149Z,4.27
2022-10-05T02:59:02.518Z,4.21
2022-10-05T03:01:35.950Z,4.27
2022-10-05T03:04:12.790Z,4.35
2022-10-05T03:06:47.117Z,4.35
2022-10-05T03:09:17.327Z,4.55
2022-10-05T03:11:51.617Z,4.58
2022-10-05T03:14:23.375Z,4.60
2022-10-05T03:17:05.520Z,4.61
2022-10-05T03:19:47.294Z,4.63
2022-10-05T03:22:23.355Z,4.52
2022-10-05T03:25:09.950Z,4.53
2022-10-05T03:27:44.644Z,4.32
2022-10-05T03:30:16.231Z,4.39
2022-10-05T03:32:55.636Z,4.39
2022-10-05T03:35:30.150Z,4.34
2022-10-05T03:38:08.251Z,4.32
2022-10-05T03:40:43.236Z,4.32
2022-10-05T03:43:26.953Z,4.32
2022-10-05T03:46:00.515Z,4.23
2022-10-05T03:48:33.642Z,4.00
2022-10-05T03:51:07.806Z,3.94
2022-10-05T03:53:41.745Z,3.97
2022-10-05T03:56:14.606Z,3.91
2022-10-05T03:58:46.106Z,4.04
2022-10-05T04:01:18.698Z,4.09
2022-10-05T04:03:49.398Z,4.15
2022-10-05T04:06:21.073Z,4.23
2022-10-05T04:08:52.108Z,4.27
2022-10-05T04:11:24.107Z,4.37
2022-10-05T04:13:55.043Z,4.29
2022-10-05T04:16:25.543Z,4.35
2022-10-05T04:19:01.428Z,4.24
2022-10-05T04:21:32.522Z,4.32
2022-10-05T04:24:04.274Z,4.26
2022-10-05T04:26:36.287Z,4.17
2022-10-05T04:29:12.285Z,4.04
2022-10-05T04:32:11.795Z,3.93
2022-10-05T04:35:00.559Z,4.01
2022-10-05T04:37:42.202Z,4.08
2022-10-05T04:40:31.001Z,4.15
2022-10-05T04:43:07.441Z,4.03
2022-10-05T04:45:51.731Z,4.09
2022-10-05T04:48:50.324Z,4.02
2022-10-05T04:51:32.528Z,4.10
2022-10-05T04:54:13.978Z,4.08
2022-10-05T04:56:45.416Z,4.03
2022-10-05T04:59:40.193Z,4.05
2022-10-05T05:02:20.507Z,3.98
2022-10-05T05:05:24.404Z,4.10
2022-10-05T05:08:00.406Z,4.07
2022-10-05T05:10:50.230Z,4.00
2022-10-05T05:13:38.725Z,3.99
2022-10-05T05:16:11.608Z,3.91
2022-10-05T05:19:11.445Z,4.10
2022-10-05T05:21:49.479Z,4.11
2022-10-05T05:24:23.544Z,4.14
2022-10-05T05:27:15.209Z,4.23
2022-10-05T05:29:57.660Z,4.05
2022-10-05T05:32:38.626Z,4.13
2022-10-05T05:35:27.351Z,4.16
2022-10-05T05:38:03.668Z,4.14
2022-10-05T05:40:35.268Z,4.10
2022-10-05T05:43:08.575Z,4.02
2022-10-05T05:45:42.259Z,4.06
2022-10-05T05:48:16.957Z,3.96
2022-10-05T05:50:55.964Z,3.92
2022-10-05T05:53:29.649Z,4.01
2022-10-05T05:56:05.985Z,4.13
2022-10-05T05:58:36.122Z,4.16
2022-10-05T06:01:20.250Z,4.22
2022-10-05T06:04:00.018Z,4.34
2022-10-05T06:06:32.263Z,4.23
2022-10-05T06:09:03.438Z,4.25
2022-10-05T06:11:39.234Z,4.23
2022-10-05T06:14:17.147Z,4.21
2022-10-05T06:16:49.330Z,4.26
2022-10-05T06:19:21.426Z,4.42
2022-10-05T06:21:55.178Z,4.44
2022-10-05T06:24:27.295Z,4.54
2022-10-05T06:27:21.850Z,4.62
2022-10-05T06:30:04.915Z,4.66
2022-10-05T06:32:45.979Z,4.64
2022-10-05T06:35:23.637Z,4.70
2022-10-05T06:38:04.700Z,4.97
2022-10-05T06:40:50.713Z,5.25
2022-10-05T06:43:40.812Z,5.60
2022-10-05T06:46:13.470Z,5.91
2022-10-05T06:49:01.958Z,6.15
2022-10-05T06:51:36.624Z,6.48
2022-10-05T06:54:16.671Z,6.70
2022-10-05T06:56:49.278Z,7.02
2022-10-05T06:59:22.851Z,7.32
2022-10-05T07:01:56.112Z,7.55
2022-10-05T07:04:51.420Z,7.82
2022-10-05T07:07:25.097Z,8.10
2022-10-05T07:10:12.794Z,8.31
2022-10-05T07:12:58.990Z,8.63
2022-10-05T07:15:42.050Z,8.98
2022-10-05T07:18:41.599Z,9.28
2022-10-05T07:21:18.685Z,9.61
2022-10-05T07:23:58.890Z,9.85
2022-10-05T07:26:34.196Z,10.11
2022-10-05T07:29:23.131Z,10.29
2022-10-05T07:32:01.255Z,10.50
2022-10-05T07:34:38.991Z,10.73
2022-10-05T07:37:11.820Z,10.88
2022-10-05T07:40:01.306Z,11.00
2022-10-05T07:42:47.331Z,11.13
2022-10-05T07:45:29.213Z,11.27
2022-10-05T07:48:12.519Z,11.34
2022-10-05T07:50:51.042Z,11.44
2022-10-05T07:53:24.203Z,11.58
2022-10-05T07:55:54.877Z,11.70
2022-10-05T07:58:27.111Z,11.82
2022-10-05T08:01:08.240Z,11.95
2022-10-05T08:03:49.355Z,12.05
2022-10-05T08:06:30.343Z,12.22
2022-10-05T08:09:02.699Z,12.38
2022-10-05T08:11:35.829Z,12.57
2022-10-05T08:14:10.897Z,12.70
2022-10-05T08:16:38.787Z,12.82
2022-10-05T08:19:17.077Z,12.96
2022-10-05T08:21:49.369Z,13.11
2022-10-05T08:24:30.658Z,13.16
2022-10-05T08:27:05.215Z,13.25
2022-10-05T08:29:37.195Z,13.23
2022-10-05T08:32:12.788Z,13.38
2022-10-05T08:34:47.805Z,13.54
2022-10-05T08:37:22.309Z,13.64
2022-10-05T08:39:55.864Z,13.71
2022-10-05T08:42:51.733Z,13.88
2022-10-05T08:45:41.643Z,14.05
2022-10-05T08:48:40.549Z,14.17
2022-10-05T08:51:49.860Z,14.27
2022-10-05T08:55:09.938Z,14.40
2022-10-05T08:57:58.133Z,14.47
2022-10-05T09:00:32.303Z,14.47
2022-10-05T09:03:22.143Z,14.46
2022-10-05T09:06:19.804Z,14.53
2022-10-05T09:09:08.070Z,14.61
2022-10-05T09:11:38.619Z,14.72
2022-10-05T09:14:34.835Z,14.81
2022-10-05T09:17:29.892Z,14.94
2022-10-05T09:20:10.886Z,15.04
2022-10-05T09:22:57.630Z,15.20
2022-10-05T09:25:42.506Z,15.45
2022-10-05T09:28:24.340Z,15.57
2022-10-05T09:31:02.343Z,15.67
2022-10-05T09:34:11.332Z,15.72
2022-10-05T09:37:08.017Z,15.70
2022-10-05T09:40:05.071Z,15.80
2022-10-05T09:42:55.737Z,15.86
2022-10-05T09:45:58.644Z,15.91
2022-10-05T09:49:04.117Z,16.01
2022-10-05T09:52:11.042Z,15.97
2022-10-05T09:55:01.173Z,15.93
2022-10-05T09:58:04.797Z,15.88
2022-10-05T10:00:48.232Z,15.66
2022-10-05T10:03:44.021Z,15.81
2022-10-05T10:06:21.093Z,15.89
2022-10-05T10:08:58.232Z,15.91
2022-10-05T10:11:41.338Z,15.90
2022-10-05T10:14:46.743Z,15.80
2022-10-05T10:17:45.157Z,15.79
2022-10-05T10:20:33.156Z,15.67
2022-10-05T10:23:25.547Z,15.81
2022-10-05T10:26:27.670Z,15.92
2022-10-05T10:29:28.663Z,16.03
2022-10-05T10:32:07.807Z,15.88
2022-10-05T10:35:02.479Z,16.01
2022-10-05T10:38:15.395Z,16.26
2022-10-05T10:40:59.444Z,16.44
2022-10-05T10:44:01.095Z,16.60
2022-10-05T10:46:39.584Z,16.86
2022-10-05T10:49:29.675Z,17.05
2022-10-05T10:52:21.649Z,17.23
2022-10-05T10:55:41.636Z,17.31
2022-10-05T10:58:38.882Z,17.47
2022-10-05T11:01:25.464Z,17.63
2022-10-05T11:04:27.671Z,17.85
2022-10-05T11:07:23.195Z,18.01
2022-10-05T11:10:23.507Z,18.18
2022-10-05T11:13:16.987Z,18.24
2022-10-05T11:16:15.953Z,18.30
2022-10-05T11:19:11.531Z,18.35
2022-10-05T11:21:55.417Z,18.34
2022-10-05T11:24:51.080Z,18.42
2022-10-05T11:27:41.807Z,18.51
2022-10-05T11:30:54.567Z,18.55
2022-10-05T11:34:00.556Z,18.63
2022-10-05T11:37:08.045Z,18.56
2022-10-05T11:39:42.096Z,18.64
2022-10-05T11:42:27.295Z,18.80
2022-10-05T11:45:10.223Z,18.93
2022-10-05T11:47:45.214Z,18.96
2022-10-05T11:50:20.467Z,18.92
2022-10-05T11:52:52.765Z,18.89
2022-10-05T11:55:26.413Z,18.86
2022-10-05T11:57:56.767Z,18.90
2022-10-05T12:00:27.394Z,18.93
2022-10-05T12:03:21.148Z,19.03
2022-10-05T12:06:02.745Z,19.08
2022-10-05T12:08:40.860Z,19.03
2022-10-05T12:11:25.788Z,18.93
2022-10-05T12:13:59.622Z,18.85
2022-10-05T12:16:32.104Z,18.73
2022-10-05T12:19:03.543Z,18.71
2022-10-05T12:21:41.920Z,18.67
2022-10-05T12:24:21.245Z,18.60
2022-10-05T12:26:58.394Z,18.50
2022-10-05T12:29:35.273Z,18.46
2022-10-05T12:32:06.727Z,18.41
2022-10-05T12:34:44.066Z,18.37
2022-10-05T12:37:39.123Z,18.27
2022-10-05T12:40:18.726Z,18.23
2022-10-05T12:42:56.341Z,18.17
2022-10-05T12:45:37.157Z,17.86
2022-10-05T12:48:18.985Z,17.71
2022-10-05T12:50:50.334Z,17.69
2022-10-05T12:53:31.446Z,17.60
2022-10-05T12:56:04.105Z,17.63
2022-10-05T12:58:41.773Z,17.72
2022-10-05T13:01:18.868Z,17.81
2022-10-05T13:03:52.529Z,17.85
2022-10-05T13:06:30.084Z,17.91
2022-10-05T13:09:05.088Z,18.01
2022-10-05T13:11:38.882Z,18.11
2022-10-05T13:14:17.939Z,18.13
2022-10-05T13:16:54.731Z,18.20
2022-10-05T13:19:35.287Z,18.22
2022-10-05T13:22:15.890Z,18.25
2022-10-05T13:24:55.255Z,18.25
2022-10-05T13:27:28.313Z,18.24
2022-10-05T13:30:02.046Z,18.21
2022-10-05T13:32:34.902Z,18.14
2022-10-05T13:35:17.546Z,18.11
2022-10-05T13:37:55.692Z,18.07
2022-10-05T13:40:32.453Z,18.04
2022-10-05T13:43:03.519Z,17.97
2022-10-05T13:45:38.302Z,17.93
2022-10-05T13:48:22.820Z,17.84
2022-10-05T13:50:59.499Z,17.74
2022-10-05T13:53:33.740Z,17.61
2022-10-05T13:56:11.930Z,17.50
2022-10-05T13:58:45.186Z,17.38
2022-10-05T14:01:17.121Z,17.28
2022-10-05T14:04:05.260Z,17.23
2022-10-05T14:06:34.153Z,17.17
2022-10-05T14:09:01.204Z,17.08
2022-10-05T14:11:32.731Z,17.01
2022-10-05T14:14:12.543Z,16.99
2022-10-05T14:16:48.638Z,16.93
2022-10-05T14:19:19.057Z,16.89
2022-10-05T14:21:52.083Z,16.83
2022-10-05T14:24:42.402Z,16.79
2022-10-05T14:27:19.780Z,16.78
2022-10-05T14:29:55.096Z,16.77
2022-10-05T14:32:23.825Z,16.76
2022-10-05T14:35:02.758Z,16.76
2022-10-05T14:37:32.988Z,16.78
2022-10-05T14:40:21.468Z,16.75
2022-10-05T14:42:50.046Z,16.75
2022-10-05T14:45:20.684Z,16.71
2022-10-05T14:47:50.767Z,16.64
2022-10-05T14:50:21.365Z,16.56
2022-10-05T14:53:04.008Z,16.48
2022-10-05T14:55:45.809Z,16.42
2022-10-05T14:58:50.626Z,16.38
2022-10-05T15:01:26.175Z,16.28
2022-10-05T15:04:03.319Z,16.19
2022-10-05T15:06:37.633Z,16.11
2022-10-05T15:09:19.731Z,16.04
2022-10-05T15:11:54.947Z,15.99
2022-10-05T15:14:26.745Z,15.95
2022-10-05T15:16:58.548Z,15.79
2022-10-05T15:19:35.983Z,15.62
2022-10-05T15:22:25.235Z,15.57
2022-10-05T15:25:01.017Z,15.51
2022-10-05T15:27:34.447Z,15.43
2022-10-05T15:30:09.471Z,15.38
2022-10-05T15:32:46.887Z,15.33
2022-10-05T15:35:36.902Z,15.22
2022-10-05T15:38:14.488Z,15.10
2022-10-05T15:40:46.437Z,15.01
2022-10-05T15:43:19.794Z,14.91
2022-10-05T15:45:57.126Z,14.80
2022-10-05T15:48:28.569Z,14.72
2022-10-05T15:51:01.023Z,14.62
2022-10-05T15:53:36.121Z,14.46
2022-10-05T15:56:07.182Z,14.32
2022-10-05T15:58:45.131Z,14.21
2022-10-05T16:01:18.168Z,14.14
2022-10-05T16:03:49.555Z,14.02
2022-10-05T16:06:26.356Z,13.93
2022-10-05T16:09:10.393Z,13.79
2022-10-05T16:12:00.417Z,13.72
2022-10-05T16:14:39.088Z,13.65
2022-10-05T16:17:24.026Z,13.51
2022-10-05T16:20:02.766Z,13.41
2022-10-05T16:22:43.244Z,13.32
2022-10-05T16:25:21.122Z,13.15
2022-10-05T16:28:05.135Z,13.04
2022-10-05T16:30:43.305Z,12.79
2022-10-05T16:33:18.647Z,12.68
2022-10-05T16:35:55.649Z,12.78
2022-10-05T16:38:32.728Z,12.66
2022-10-05T16:41:05.559Z,12.33
2022-10-05T16:43:44.712Z,12.19
2022-10-05T16:46:20.881Z,12.21
2022-10-05T16:48:59.731Z,12.23
2022-10-05T16:51:34.391Z,11.91
2022-10-05T16:54:11.976Z,12.03
2022-10-05T16:56:45.728Z,11.86
2022-10-05T16:59:42.134Z,11.81
2022-10-05T17:02:19.539Z,11.43
2022-10-05T17:04:57.294Z,11.35
2022-10-05T17:07:42.186Z,11.30
2022-10-05T17:10:40.461Z,11.35
2022-10-05T17:13:28.464Z,11.25
2022-10-05T17:16:05.907Z,11.26
2022-10-05T17:19:08.788Z,11.10
2022-10-05T17:21:42.586Z,11.20
2022-10-05T17:24:28.396Z,11.02
2022-10-05T17:27:15.468Z,11.03
2022-10-05T17:29:47.453Z,10.83
2022-10-05T17:32:34.454Z,10.81
2022-10-05T17:35:18.435Z,10.76
2022-10-05T17:38:12.335Z,10.65
2022-10-05T17:40:39.465Z,10.55
2022-10-05T17:43:23.772Z,10.36
2022-10-05T17:45:58.294Z,10.38
2022-10-05T17:49:03.736Z,10.17
2022-10-05T17:52:05.719Z,10.05
2022-10-05T17:54:55.048Z,10.15
2022-10-05T17:57:26.510Z,10.00
2022-10-05T17:59:59.927Z,9.97
2022-10-05T18:02:42.432Z,10.04
2022-10-05T18:05:30.496Z,9.96
2022-10-05T18:08:33.437Z,9.78
2022-10-05T18:11:13.936Z,9.81
2022-10-05T18:13:45.173Z,9.86
2022-10-05T18:16:13.098Z,9.79
2022-10-05T18:18:56.326Z,9.69
2022-10-05T18:21:32.008Z,9.76
2022-10-05T18:24:24.522Z,9.67
2022-10-05T18:27:10.464Z,9.59
2022-10-05T18:29:51.702Z,9.53
2022-10-05T18:32:26.487Z,9.45
2022-10-05T18:35:01.862Z,9.33
2022-10-05T18:37:42.455Z,9.22
2022-10-05T18:40:24.848Z,9.45
2022-10-05T18:43:03.473Z,9.52
2022-10-05T18:45:38.175Z,9.45
2022-10-05T18:48:20.771Z,9.42
2022-10-05T18:50:53.667Z,9.18
2022-10-05T18:53:30.361Z,9.21
2022-10-05T18:56:02.704Z,9.25
2022-10-05T18:58:41.545Z,9.13
2022-10-05T19:01:31.993Z,9.25
2022-10-05T19:04:19.960Z,9.41
2022-10-05T19:06:59.192Z,9.36
2022-10-05T19:09:43.157Z,9.32
2022-10-05T19:12:19.097Z,9.25
2022-10-05T19:14:56.251Z,9.18
2022-10-05T19:17:40.027Z,9.01
2022-10-05T19:20:18.420Z,9.02
2022-10-05T19:23:00.005Z,8.95
2022-10-05T19:25:37.508Z,8.78
2022-10-05T19:28:14.585Z,8.86
2022-10-05T19:30:59.164Z,9.01
2022-10-05T19:33:33.261Z,9.05
2022-10-05T19:36:13.725Z,9.06
2022-10-05T19:38:53.210Z,8.99
2022-10-05T19:41:26.883Z,8.99
2022-10-05T19:44:07.546Z,8.90
2022-10-05T19:46:49.496Z,8.71
2022-10-05T19:49:36.498Z,8.79
2022-10-05T19:52:11.223Z,8.85
2022-10-05T19:54:41.585Z,8.89
2022-10-05T19:57:16.389Z,8.78
2022-10-05T19:59:45.880Z,8.72
2022-10-05T20:02:17.860Z,8.89
2022-10-05T20:04:46.132Z,8.88
2022-10-05T20:07:14.925Z,8.90
2022-10-05T20:09:56.146Z,8.94
2022-10-05T20:12:43.111Z,8.95
2022-10-05T20:15:17.811Z,9.25
2022-10-05T20:17:46.032Z,9.18
2022-10-05T20:20:35.280Z,9.04
2022-10-05T20:23:22.299Z,8.98
2022-10-05T20:25:49.594Z,9.02
2022-10-05T20:28:30.757Z,8.76
2022-10-05T20:30:57.944Z,9.01
2022-10-05T20:33:27.385Z,8.97
2022-10-05T20:35:54.730Z,8.94
2022-10-05T20:38:23.837Z,9.02
2022-10-05T20:40:50.559Z,9.05
2022-10-05T20:43:17.418Z,8.97
2022-10-05T20:45:44.238Z,9.04
2022-10-05T20:48:11.530Z,9.06
2022-10-05T20:50:40.190Z,8.94
2022-10-05T20:53:11.582Z,8.97
2022-10-05T20:55:38.899Z,9.02
2022-10-05T20:58:06.693Z,9.07
2022-10-05T21:00:34.120Z,9.12
2022-10-05T21:03:00.975Z,9.15
2022-10-05T21:05:27.982Z,9.02
2022-10-05T21:07:56.162Z,8.94
2022-10-05T21:10:22.982Z,8.84
2022-10-05T21:12:49.740Z,9.09
2022-10-05T21:15:16.560Z,9.31
2022-10-05T21:17:43.347Z,9.27
2022-10-05T21:20:10.367Z,9.15
2022-10-05T21:22:37.062Z,9.00
2022-10-05T21:25:06.305Z,8.89
2022-10-05T21:27:33.041Z,8.63
2022-10-05T21:29:59.886Z,8.73
2022-10-05T21:32:26.715Z,8.87
2022-10-05T21:34:53.506Z,8.99
2022-10-05T21:37:20.486Z,9.06
2022-10-05T21:39:47.222Z,9.02
2022-10-05T21:42:15.686Z,8.93
2022-10-05T21:44:42.469Z,9.06
2022-10-05T21:47:09.391Z,8.93
2022-10-05T21:49:36.551Z,8.92
2022-10-05T21:52:04.809Z,8.94
2022-10-05T21:54:32.910Z,8.91
2022-10-05T21:57:01.289Z,8.71
2022-10-05T21:59:36.121Z,8.67
2022-10-05T22:02:03.876Z,8.76
2022-10-05T22:04:30.875Z,8.88
2022-10-05T22:06:57.742Z,8.95
2022-10-05T22:09:24.528Z,8.89
2022-10-05T22:11:51.492Z,9.02
2022-10-05T22:14:18.648Z,9.08
2022-10-05T22:16:46.948Z,8.98
2022-10-05T22:19:16.558Z,8.91
2022-10-05T22:21:43.492Z,8.66
2022-10-05T22:24:11.456Z,8.89
2022-10-05T22:26:39.752Z,8.99
2022-10-05T22:29:07.726Z,9.04
2022-10-05T22:31:34.737Z,8.84
2022-10-05T22:34:03.035Z,8.83
2022-10-05T22:36:29.781Z,8.79
2022-10-05T22:38:57.730Z,8.77
2022-10-05T22:41:24.610Z,8.73
2022-10-05T22:43:52.546Z,8.75
2022-10-05T22:46:20.056Z,8.75
2022-10-05T22:48:46.948Z,8.68
2022-10-05T22:51:15.733Z,8.67
2022-10-05T22:53:42.430Z,8.66
2022-10-05T22:56:10.696Z,8.71
2022-10-05T22:58:38.308Z,8.74
2022-10-05T23:01:06.746Z,8.74
2022-10-05T23:03:34.210Z,8.64
2022-10-05T23:06:03.766Z,8.68
2022-10-05T23:08:32.444Z,8.75
2022-10-05T23:11:03.988Z,8.64
2022-10-05T23:13:31.125Z,8.63
2022-10-05T23:15:58.024Z,8.47
2022-10-05T23:18:25.415Z,8.78
2022-10-05T23:20:53.394Z,8.70
2022-10-05T23:23:20.256Z,8.67
2022-10-05T23:25:48.562Z,8.81
2022-10-05T23:28:15.457Z,8.68
2022-10-05T23:30:42.343Z,8.49
2022-10-05T23:33:09.231Z,8.47
2022-10-05T23:35:36.030Z,8.43
2022-10-05T23:38:04.033Z,8.39
2022-10-05T23:40:30.809Z,8.21
2022-10-05T23:42:59.459Z,8.17
2022-10-05T23:45:26.209Z,8.30
2022-10-05T23:47:53.157Z,8.42
2022-10-05T23:50:19.921Z,8.34
2022-10-05T23:52:46.857Z,8.22
2022-10-05T23:55:13.700Z,8.12
2022-10-05T23:57:40.611Z,8.19
